sensor_id;sensor_type;location;lat;lon;timestamp;temperature;humidity
19003;DHT22;9634;51.040;13.794;2023-02-14T00:02:36;6.50;99.90
19003;DHT22;9634;51.040;13.794;2023-02-14T00:07:39;6.40;99.90
19003;DHT22;9634;51.040;13.794;2023-02-14T00:12:43;6.60;99.90
19003;DHT22;9634;51.040;13.794;2023-02-14T00:17:45;6.60;99.90
19003;DHT22;9634;51.040;13.794;2023-02-14T00:22:47;6.50;99.90
19003;DHT22;9634;51.040;13.794;2023-02-14T00:27:51;6.40;99.90
19003;DHT22;9634;51.040;13.794;2023-02-14T00:32:54;6.40;99.90
19003;DHT22;9634;51.040;13.794;2023-02-14T00:37:56;6.40;99.90
19003;DHT22;9634;51.040;13.794;2023-02-14T00:42:59;6.50;99.90
19003;DHT22;9634;51.040;13.794;2023-02-14T00:48:03;6.50;99.90
19003;DHT22;9634;51.040;13.794;2023-02-14T00:53:05;6.40;99.90
19003;DHT22;9634;51.040;13.794;2023-02-14T00:58:09;6.40;99.90
19003;DHT22;9634;51.040;13.794;2023-02-14T01:03:11;6.40;99.90
19003;DHT22;9634;51.040;13.794;2023-02-14T01:08:13;6.40;99.90
19003;DHT22;9634;51.040;13.794;2023-02-14T01:13:17;6.30;99.90
19003;DHT22;9634;51.040;13.794;2023-02-14T01:18:19;6.30;99.90
19003;DHT22;9634;51.040;13.794;2023-02-14T01:23:22;6.30;99.90
19003;DHT22;9634;51.040;13.794;2023-02-14T01:28:26;6.30;99.90
19003;DHT22;9634;51.040;13.794;2023-02-14T01:33:28;6.30;99.90
19003;DHT22;9634;51.040;13.794;2023-02-14T01:38:31;6.30;99.90
19003;DHT22;9634;51.040;13.794;2023-02-14T01:43:49;6.30;99.90
19003;DHT22;9634;51.040;13.794;2023-02-14T01:48:54;6.50;99.90
19003;DHT22;9634;51.040;13.794;2023-02-14T01:53:58;6.40;99.90
19003;DHT22;9634;51.040;13.794;2023-02-14T01:59:04;6.30;99.90
19003;DHT22;9634;51.040;13.794;2023-02-14T02:04:09;6.20;99.90
19003;DHT22;9634;51.040;13.794;2023-02-14T02:09:17;6.30;99.90
19003;DHT22;9634;51.040;13.794;2023-02-14T02:14:22;6.40;99.90
19003;DHT22;9634;51.040;13.794;2023-02-14T02:19:52;6.40;99.90
19003;DHT22;9634;51.040;13.794;2023-02-14T02:25:02;6.40;99.90
19003;DHT22;9634;51.040;13.794;2023-02-14T02:30:56;6.40;99.90
19003;DHT22;9634;51.040;13.794;2023-02-14T02:36:27;6.30;99.90
19003;DHT22;9634;51.040;13.794;2023-02-14T02:41:44;6.40;99.90
19003;DHT22;9634;51.040;13.794;2023-02-14T02:46:56;6.40;99.90
19003;DHT22;9634;51.040;13.794;2023-02-14T02:52:05;6.40;99.90
19003;DHT22;9634;51.040;13.794;2023-02-14T02:57:33;6.40;99.90
19003;DHT22;9634;51.040;13.794;2023-02-14T03:02:40;6.40;99.90
19003;DHT22;9634;51.040;13.794;2023-02-14T03:07:58;6.30;99.90
19003;DHT22;9634;51.040;13.794;2023-02-14T03:13:29;6.20;99.90
19003;DHT22;9634;51.040;13.794;2023-02-14T03:18:56;6.20;99.90
19003;DHT22;9634;51.040;13.794;2023-02-14T03:24:08;6.10;99.90
19003;DHT22;9634;51.040;13.794;2023-02-14T03:29:17;6.20;99.90
19003;DHT22;9634;51.040;13.794;2023-02-14T03:34:27;6.20;99.90
19003;DHT22;9634;51.040;13.794;2023-02-14T03:39:37;6.10;99.90
19003;DHT22;9634;51.040;13.794;2023-02-14T03:44:44;6.20;99.90
19003;DHT22;9634;51.040;13.794;2023-02-14T03:49:52;6.20;99.90
19003;DHT22;9634;51.040;13.794;2023-02-14T03:55:00;6.20;99.90
19003;DHT22;9634;51.040;13.794;2023-02-14T04:00:04;6.10;99.90
19003;DHT22;9634;51.040;13.794;2023-02-14T04:05:15;6.10;99.90
19003;DHT22;9634;51.040;13.794;2023-02-14T04:10:20;6.10;99.90
19003;DHT22;9634;51.040;13.794;2023-02-14T04:15:22;6.10;99.90
19003;DHT22;9634;51.040;13.794;2023-02-14T04:20:25;6.10;99.90
19003;DHT22;9634;51.040;13.794;2023-02-14T04:25:29;6.10;99.90
19003;DHT22;9634;51.040;13.794;2023-02-14T04:30:31;6.10;99.90
19003;DHT22;9634;51.040;13.794;2023-02-14T04:35:33;6.10;99.90
19003;DHT22;9634;51.040;13.794;2023-02-14T04:40:37;6.00;99.90
19003;DHT22;9634;51.040;13.794;2023-02-14T04:45:39;6.00;99.90
19003;DHT22;9634;51.040;13.794;2023-02-14T04:50:42;6.00;99.90
19003;DHT22;9634;51.040;13.794;2023-02-14T04:55:47;6.10;99.90
19003;DHT22;9634;51.040;13.794;2023-02-14T05:00:49;6.00;99.90
19003;DHT22;9634;51.040;13.794;2023-02-14T05:05:52;5.90;99.90
19003;DHT22;9634;51.040;13.794;2023-02-14T05:10:55;5.90;99.90
19003;DHT22;9634;51.040;13.794;2023-02-14T05:15:58;5.90;99.90
19003;DHT22;9634;51.040;13.794;2023-02-14T05:21:00;5.90;99.90
19003;DHT22;9634;51.040;13.794;2023-02-14T05:26:04;5.90;99.90
19003;DHT22;9634;51.040;13.794;2023-02-14T05:31:06;5.90;99.90
19003;DHT22;9634;51.040;13.794;2023-02-14T05:36:09;5.90;99.90
19003;DHT22;9634;51.040;13.794;2023-02-14T05:41:13;6.00;99.90
19003;DHT22;9634;51.040;13.794;2023-02-14T05:46:15;5.90;99.90
19003;DHT22;9634;51.040;13.794;2023-02-14T05:51:17;5.90;99.90
19003;DHT22;9634;51.040;13.794;2023-02-14T05:56:21;6.00;99.90
19003;DHT22;9634;51.040;13.794;2023-02-14T06:01:23;5.90;99.90
19003;DHT22;9634;51.040;13.794;2023-02-14T06:06:25;5.90;99.90
19003;DHT22;9634;51.040;13.794;2023-02-14T06:11:29;5.90;99.90
19003;DHT22;9634;51.040;13.794;2023-02-14T06:16:31;5.90;99.90
19003;DHT22;9634;51.040;13.794;2023-02-14T06:21:34;5.90;99.90
19003;DHT22;9634;51.040;13.794;2023-02-14T06:26:37;5.90;99.90
19003;DHT22;9634;51.040;13.794;2023-02-14T06:31:40;6.10;99.90
19003;DHT22;9634;51.040;13.794;2023-02-14T06:36:42;6.10;99.90
19003;DHT22;9634;51.040;13.794;2023-02-14T06:41:45;6.10;99.90
19003;DHT22;9634;51.040;13.794;2023-02-14T06:46:48;6.10;99.90
19003;DHT22;9634;51.040;13.794;2023-02-14T06:51:50;6.20;99.90
19003;DHT22;9634;51.040;13.794;2023-02-14T06:56:53;6.20;99.90
19003;DHT22;9634;51.040;13.794;2023-02-14T07:01:56;6.30;99.90
19003;DHT22;9634;51.040;13.794;2023-02-14T07:06:58;6.50;99.90
19003;DHT22;9634;51.040;13.794;2023-02-14T07:12:02;6.50;99.90
19003;DHT22;9634;51.040;13.794;2023-02-14T07:17:05;6.60;99.90
19003;DHT22;9634;51.040;13.794;2023-02-14T07:22:07;6.60;99.90
19003;DHT22;9634;51.040;13.794;2023-02-14T07:27:10;6.70;99.90
19003;DHT22;9634;51.040;13.794;2023-02-14T07:32:13;6.80;99.90
19003;DHT22;9634;51.040;13.794;2023-02-14T07:37:15;6.70;99.90
19003;DHT22;9634;51.040;13.794;2023-02-14T07:42:19;6.70;99.90
19003;DHT22;9634;51.040;13.794;2023-02-14T07:47:21;6.70;99.90
19003;DHT22;9634;51.040;13.794;2023-02-14T07:52:24;6.80;99.90
19003;DHT22;9634;51.040;13.794;2023-02-14T07:57:28;6.80;99.90
19003;DHT22;9634;51.040;13.794;2023-02-14T08:02:30;6.80;99.90
19003;DHT22;9634;51.040;13.794;2023-02-14T08:07:32;6.80;99.90
19003;DHT22;9634;51.040;13.794;2023-02-14T08:12:36;7.00;99.90
19003;DHT22;9634;51.040;13.794;2023-02-14T08:17:56;7.20;99.90
19003;DHT22;9634;51.040;13.794;2023-02-14T08:22:58;7.30;99.90
19003;DHT22;9634;51.040;13.794;2023-02-14T08:28:02;7.40;99.90
19003;DHT22;9634;51.040;13.794;2023-02-14T08:33:05;7.40;99.90
19003;DHT22;9634;51.040;13.794;2023-02-14T08:38:07;7.50;99.90
19003;DHT22;9634;51.040;13.794;2023-02-14T08:43:11;7.50;99.90
19003;DHT22;9634;51.040;13.794;2023-02-14T08:48:13;7.60;99.90
19003;DHT22;9634;51.040;13.794;2023-02-14T08:53:15;7.70;99.90
19003;DHT22;9634;51.040;13.794;2023-02-14T08:58:19;7.90;99.90
19003;DHT22;9634;51.040;13.794;2023-02-14T09:03:21;8.00;99.90
19003;DHT22;9634;51.040;13.794;2023-02-14T09:08:23;8.00;99.90
19003;DHT22;9634;51.040;13.794;2023-02-14T09:13:27;8.00;99.90
19003;DHT22;9634;51.040;13.794;2023-02-14T09:18:30;8.10;99.90
19003;DHT22;9634;51.040;13.794;2023-02-14T09:23:32;8.30;99.90
19003;DHT22;9634;51.040;13.794;2023-02-14T09:28:37;8.40;99.90
19003;DHT22;9634;51.040;13.794;2023-02-14T09:33:39;8.40;99.90
19003;DHT22;9634;51.040;13.794;2023-02-14T09:38:59;8.40;99.90
19003;DHT22;9634;51.040;13.794;2023-02-14T09:44:05;8.40;99.90
19003;DHT22;9634;51.040;13.794;2023-02-14T09:49:13;8.10;99.90
19003;DHT22;9634;51.040;13.794;2023-02-14T09:54:20;8.00;99.90
19003;DHT22;9634;51.040;13.794;2023-02-14T09:59:30;8.00;99.90
19003;DHT22;9634;51.040;13.794;2023-02-14T10:04:38;8.00;99.90
19003;DHT22;9634;51.040;13.794;2023-02-14T10:09:59;8.20;99.90
19003;DHT22;9634;51.040;13.794;2023-02-14T10:15:12;8.20;99.90
19003;DHT22;9634;51.040;13.794;2023-02-14T10:20:21;8.10;99.90
19003;DHT22;9634;51.040;13.794;2023-02-14T10:25:28;8.30;99.90
19003;DHT22;9634;51.040;13.794;2023-02-14T10:30:37;8.30;99.90
19003;DHT22;9634;51.040;13.794;2023-02-14T10:35:45;8.60;99.90
19003;DHT22;9634;51.040;13.794;2023-02-14T10:41:02;8.70;99.90
19003;DHT22;9634;51.040;13.794;2023-02-14T10:46:14;8.70;99.90
19003;DHT22;9634;51.040;13.794;2023-02-14T10:51:23;8.50;99.90
19003;DHT22;9634;51.040;13.794;2023-02-14T10:56:34;8.70;99.90
19003;DHT22;9634;51.040;13.794;2023-02-14T11:01:39;8.70;99.90
19003;DHT22;9634;51.040;13.794;2023-02-14T11:06:41;8.70;99.90
19003;DHT22;9634;51.040;13.794;2023-02-14T11:11:49;8.70;99.90
19003;DHT22;9634;51.040;13.794;2023-02-14T11:16:54;8.80;99.90
19003;DHT22;9634;51.040;13.794;2023-02-14T11:21:58;8.90;99.90
19003;DHT22;9634;51.040;13.794;2023-02-14T11:27:02;9.00;99.90
19003;DHT22;9634;51.040;13.794;2023-02-14T11:32:08;8.80;99.90
19003;DHT22;9634;51.040;13.794;2023-02-14T11:37:24;8.50;99.90
19003;DHT22;9634;51.040;13.794;2023-02-14T11:42:40;8.50;99.90
19003;DHT22;9634;51.040;13.794;2023-02-14T11:47:44;8.50;99.90
19003;DHT22;9634;51.040;13.794;2023-02-14T11:52:49;8.30;99.90
19003;DHT22;9634;51.040;13.794;2023-02-14T11:57:53;8.40;99.90
19003;DHT22;9634;51.040;13.794;2023-02-14T12:02:58;8.60;99.90
19003;DHT22;9634;51.040;13.794;2023-02-14T12:08:04;8.90;99.90
19003;DHT22;9634;51.040;13.794;2023-02-14T12:13:22;8.80;99.90
19003;DHT22;9634;51.040;13.794;2023-02-14T12:18:49;8.50;99.90
19003;DHT22;9634;51.040;13.794;2023-02-14T12:24:01;8.40;99.90
19003;DHT22;9634;51.040;13.794;2023-02-14T12:29:11;8.40;99.90
19003;DHT22;9634;51.040;13.794;2023-02-14T12:34:18;8.50;99.90
19003;DHT22;9634;51.040;13.794;2023-02-14T12:39:26;8.30;99.90
19003;DHT22;9634;51.040;13.794;2023-02-14T12:44:35;8.60;99.90
19003;DHT22;9634;51.040;13.794;2023-02-14T12:55:44;9.30;99.90
19003;DHT22;9634;51.040;13.794;2023-02-14T13:00:56;9.90;99.90
19003;DHT22;9634;51.040;13.794;2023-02-14T13:06:08;10.10;99.90
19003;DHT22;9634;51.040;13.794;2023-02-14T13:11:22;10.30;99.90
19003;DHT22;9634;51.040;13.794;2023-02-14T13:16:33;10.70;99.90
19003;DHT22;9634;51.040;13.794;2023-02-14T13:21:38;11.10;99.90
19003;DHT22;9634;51.040;13.794;2023-02-14T13:26:45;10.70;99.90
19003;DHT22;9634;51.040;13.794;2023-02-14T13:31:51;10.40;99.90
19003;DHT22;9634;51.040;13.794;2023-02-14T13:36:56;10.10;99.90
19003;DHT22;9634;51.040;13.794;2023-02-14T13:42:01;10.00;99.90
19003;DHT22;9634;51.040;13.794;2023-02-14T13:47:03;10.10;99.90
19003;DHT22;9634;51.040;13.794;2023-02-14T13:52:08;9.90;99.90
19003;DHT22;9634;51.040;13.794;2023-02-14T13:57:27;9.70;99.90
19003;DHT22;9634;51.040;13.794;2023-02-14T14:02:37;9.80;99.90
19003;DHT22;9634;51.040;13.794;2023-02-14T14:07:42;9.70;99.90
19003;DHT22;9634;51.040;13.794;2023-02-14T14:12:45;9.50;99.90
19003;DHT22;9634;51.040;13.794;2023-02-14T14:23:34;9.70;99.90
19003;DHT22;9634;51.040;13.794;2023-02-14T14:28:44;9.80;99.90
19003;DHT22;9634;51.040;13.794;2023-02-14T14:33:57;9.80;99.90
19003;DHT22;9634;51.040;13.794;2023-02-14T14:38:59;9.70;99.90
19003;DHT22;9634;51.040;13.794;2023-02-14T14:44:03;9.60;99.90
19003;DHT22;9634;51.040;13.794;2023-02-14T14:49:10;9.70;99.90
19003;DHT22;9634;51.040;13.794;2023-02-14T14:54:15;9.60;99.90
19003;DHT22;9634;51.040;13.794;2023-02-14T14:59:28;9.30;99.90
19003;DHT22;9634;51.040;13.794;2023-02-14T15:04:32;9.00;99.90
19003;DHT22;9634;51.040;13.794;2023-02-14T15:09:34;8.80;99.90
19003;DHT22;9634;51.040;13.794;2023-02-14T15:14:40;8.90;99.90
19003;DHT22;9634;51.040;13.794;2023-02-14T15:19:46;9.20;99.90
19003;DHT22;9634;51.040;13.794;2023-02-14T15:24:51;11.10;99.90
19003;DHT22;9634;51.040;13.794;2023-02-14T15:30:00;11.40;99.90
19003;DHT22;9634;51.040;13.794;2023-02-14T15:35:05;10.10;99.90
19003;DHT22;9634;51.040;13.794;2023-02-14T15:40:14;9.20;99.90
19003;DHT22;9634;51.040;13.794;2023-02-14T15:45:20;8.80;99.90
19003;DHT22;9634;51.040;13.794;2023-02-14T15:50:25;8.40;99.90
19003;DHT22;9634;51.040;13.794;2023-02-14T15:55:29;8.20;99.90
19003;DHT22;9634;51.040;13.794;2023-02-14T16:00:34;7.80;99.90
19003;DHT22;9634;51.040;13.794;2023-02-14T16:05:36;7.20;99.90
19003;DHT22;9634;51.040;13.794;2023-02-14T16:10:39;6.60;99.90
19003;DHT22;9634;51.040;13.794;2023-02-14T16:15:55;6.10;99.90
19003;DHT22;9634;51.040;13.794;2023-02-14T16:21:09;5.70;99.90
19003;DHT22;9634;51.040;13.794;2023-02-14T16:26:12;5.30;99.90
19003;DHT22;9634;51.040;13.794;2023-02-14T16:31:16;5.00;99.90
19003;DHT22;9634;51.040;13.794;2023-02-14T16:36:21;4.80;99.90
19003;DHT22;9634;51.040;13.794;2023-02-14T16:41:25;4.50;99.90
19003;DHT22;9634;51.040;13.794;2023-02-14T16:46:34;4.30;99.90
19003;DHT22;9634;51.040;13.794;2023-02-14T16:51:38;4.10;99.90
19003;DHT22;9634;51.040;13.794;2023-02-14T16:56:44;3.90;99.90
19003;DHT22;9634;51.040;13.794;2023-02-14T17:01:48;3.80;99.90
19003;DHT22;9634;51.040;13.794;2023-02-14T17:06:53;3.50;99.90
19003;DHT22;9634;51.040;13.794;2023-02-14T17:11:59;3.40;99.90
19003;DHT22;9634;51.040;13.794;2023-02-14T17:17:05;3.20;99.90
19003;DHT22;9634;51.040;13.794;2023-02-14T17:22:08;3.20;99.90
19003;DHT22;9634;51.040;13.794;2023-02-14T17:27:11;3.40;99.90
19003;DHT22;9634;51.040;13.794;2023-02-14T17:32:15;3.50;99.90
19003;DHT22;9634;51.040;13.794;2023-02-14T17:37:17;3.50;99.90
19003;DHT22;9634;51.040;13.794;2023-02-14T17:42:20;3.40;99.90
19003;DHT22;9634;51.040;13.794;2023-02-14T17:47:23;3.60;99.90
19003;DHT22;9634;51.040;13.794;2023-02-14T17:52:25;3.60;99.90
19003;DHT22;9634;51.040;13.794;2023-02-14T17:57:29;3.60;99.90
19003;DHT22;9634;51.040;13.794;2023-02-14T18:02:33;3.50;99.90
19003;DHT22;9634;51.040;13.794;2023-02-14T18:07:35;3.40;99.90
19003;DHT22;9634;51.040;13.794;2023-02-14T18:12:38;3.30;99.90
19003;DHT22;9634;51.040;13.794;2023-02-14T18:17:41;3.00;99.90
19003;DHT22;9634;51.040;13.794;2023-02-14T18:22:43;3.00;99.90
19003;DHT22;9634;51.040;13.794;2023-02-14T18:27:46;3.00;99.90
19003;DHT22;9634;51.040;13.794;2023-02-14T18:32:49;3.00;99.90
19003;DHT22;9634;51.040;13.794;2023-02-14T18:37:52;2.90;99.90
19003;DHT22;9634;51.040;13.794;2023-02-14T18:42:54;2.80;99.90
19003;DHT22;9634;51.040;13.794;2023-02-14T18:47:58;2.70;99.90
19003;DHT22;9634;51.040;13.794;2023-02-14T18:53:00;2.80;99.90
19003;DHT22;9634;51.040;13.794;2023-02-14T18:58:02;2.70;99.90
19003;DHT22;9634;51.040;13.794;2023-02-14T19:03:06;2.80;99.90
19003;DHT22;9634;51.040;13.794;2023-02-14T19:08:09;2.70;99.90
19003;DHT22;9634;51.040;13.794;2023-02-14T19:13:11;2.70;99.90
19003;DHT22;9634;51.040;13.794;2023-02-14T19:18:15;2.60;99.90
19003;DHT22;9634;51.040;13.794;2023-02-14T19:23:18;2.50;99.90
19003;DHT22;9634;51.040;13.794;2023-02-14T19:28:20;2.40;99.90
19003;DHT22;9634;51.040;13.794;2023-02-14T19:33:24;2.30;99.90
19003;DHT22;9634;51.040;13.794;2023-02-14T19:38:26;2.30;99.90
19003;DHT22;9634;51.040;13.794;2023-02-14T19:43:29;2.20;99.90
19003;DHT22;9634;51.040;13.794;2023-02-14T19:48:32;2.20;99.90
19003;DHT22;9634;51.040;13.794;2023-02-14T19:53:34;2.00;99.90
19003;DHT22;9634;51.040;13.794;2023-02-14T19:58:37;1.90;99.90
19003;DHT22;9634;51.040;13.794;2023-02-14T20:03:42;1.90;99.90
19003;DHT22;9634;51.040;13.794;2023-02-14T20:08:44;1.90;99.90
19003;DHT22;9634;51.040;13.794;2023-02-14T20:13:46;2.00;99.90
19003;DHT22;9634;51.040;13.794;2023-02-14T20:18:50;2.10;99.90
19003;DHT22;9634;51.040;13.794;2023-02-14T20:23:52;2.00;99.90
19003;DHT22;9634;51.040;13.794;2023-02-14T20:28:57;1.90;99.90
19003;DHT22;9634;51.040;13.794;2023-02-14T20:34:01;2.00;99.90
19003;DHT22;9634;51.040;13.794;2023-02-14T20:39:05;1.90;99.90
19003;DHT22;9634;51.040;13.794;2023-02-14T20:44:09;2.00;99.90
19003;DHT22;9634;51.040;13.794;2023-02-14T20:49:13;2.00;99.90
19003;DHT22;9634;51.040;13.794;2023-02-14T20:54:15;2.00;99.90
19003;DHT22;9634;51.040;13.794;2023-02-14T20:59:18;2.00;99.90
19003;DHT22;9634;51.040;13.794;2023-02-14T21:04:26;2.10;99.90
19003;DHT22;9634;51.040;13.794;2023-02-14T21:09:29;2.00;99.90
19003;DHT22;9634;51.040;13.794;2023-02-14T21:14:32;2.00;99.90
19003;DHT22;9634;51.040;13.794;2023-02-14T21:19:36;1.90;99.90
19003;DHT22;9634;51.040;13.794;2023-02-14T21:24:39;1.90;99.90
19003;DHT22;9634;51.040;13.794;2023-02-14T21:29:41;1.80;99.90
19003;DHT22;9634;51.040;13.794;2023-02-14T21:34:45;1.90;99.90
19003;DHT22;9634;51.040;13.794;2023-02-14T21:39:48;1.90;99.90
19003;DHT22;9634;51.040;13.794;2023-02-14T21:44:51;1.90;99.90
19003;DHT22;9634;51.040;13.794;2023-02-14T21:50:12;1.80;99.90
19003;DHT22;9634;51.040;13.794;2023-02-14T21:55:33;1.70;99.90
19003;DHT22;9634;51.040;13.794;2023-02-14T22:00:35;1.80;99.90
19003;DHT22;9634;51.040;13.794;2023-02-14T22:05:39;1.80;99.90
19003;DHT22;9634;51.040;13.794;2023-02-14T22:10:41;2.00;99.90
19003;DHT22;9634;51.040;13.794;2023-02-14T22:15:44;2.00;99.90
19003;DHT22;9634;51.040;13.794;2023-02-14T22:20:48;2.10;99.90
19003;DHT22;9634;51.040;13.794;2023-02-14T22:25:52;2.10;99.90
19003;DHT22;9634;51.040;13.794;2023-02-14T22:30:58;2.10;99.90
19003;DHT22;9634;51.040;13.794;2023-02-14T22:36:02;2.10;99.90
19003;DHT22;9634;51.040;13.794;2023-02-14T22:41:05;2.20;99.90
19003;DHT22;9634;51.040;13.794;2023-02-14T22:46:09;2.20;99.90
19003;DHT22;9634;51.040;13.794;2023-02-14T22:51:18;2.20;99.90
19003;DHT22;9634;51.040;13.794;2023-02-14T22:56:21;2.30;99.90
19003;DHT22;9634;51.040;13.794;2023-02-14T23:01:24;2.20;99.90
19003;DHT22;9634;51.040;13.794;2023-02-14T23:06:30;2.20;99.90
19003;DHT22;9634;51.040;13.794;2023-02-14T23:11:33;2.30;99.90
19003;DHT22;9634;51.040;13.794;2023-02-14T23:16:46;2.30;99.90
19003;DHT22;9634;51.040;13.794;2023-02-14T23:22:10;2.30;99.90
19003;DHT22;9634;51.040;13.794;2023-02-14T23:27:14;2.30;99.90
19003;DHT22;9634;51.040;13.794;2023-02-14T23:32:17;2.30;99.90
19003;DHT22;9634;51.040;13.794;2023-02-14T23:37:21;2.30;99.90
19003;DHT22;9634;51.040;13.794;2023-02-14T23:42:23;2.20;99.90
19003;DHT22;9634;51.040;13.794;2023-02-14T23:47:25;2.20;99.90
19003;DHT22;9634;51.040;13.794;2023-02-14T23:52:29;2.20;99.90
19003;DHT22;9634;51.040;13.794;2023-02-14T23:57:31;2.20;99.90
